sensor_id;sensor_type;location;lat;lon;timestamp;temperature;humidity
60965;DHT22;46834;51.100;6.886;2023-02-01T00:02:06;7.20;52.30
60965;DHT22;46834;51.100;6.886;2023-02-01T00:04:32;7.30;52.40
60965;DHT22;46834;51.100;6.886;2023-02-01T00:06:58;7.30;52.40
60965;DHT22;46834;51.100;6.886;2023-02-01T00:09:23;7.30;52.40
60965;DHT22;46834;51.100;6.886;2023-02-01T00:11:49;7.30;52.30
60965;DHT22;46834;51.100;6.886;2023-02-01T00:14:15;7.30;52.30
60965;DHT22;46834;51.100;6.886;2023-02-01T00:16:41;7.30;52.20
60965;DHT22;46834;51.100;6.886;2023-02-01T00:19:11;7.30;52.20
60965;DHT22;46834;51.100;6.886;2023-02-01T00:21:39;7.30;52.20
60965;DHT22;46834;51.100;6.886;2023-02-01T00:24:05;7.40;52.30
60965;DHT22;46834;51.100;6.886;2023-02-01T00:26:39;7.40;52.30
60965;DHT22;46834;51.100;6.886;2023-02-01T00:29:12;7.40;52.40
60965;DHT22;46834;51.100;6.886;2023-02-01T00:31:40;7.40;52.30
60965;DHT22;46834;51.100;6.886;2023-02-01T00:34:07;7.40;52.20
60965;DHT22;46834;51.100;6.886;2023-02-01T00:36:35;7.40;52.30
60965;DHT22;46834;51.100;6.886;2023-02-01T00:39:01;7.40;52.20
60965;DHT22;46834;51.100;6.886;2023-02-01T00:41:27;7.40;52.20
60965;DHT22;46834;51.100;6.886;2023-02-01T00:43:53;7.40;52.20
60965;DHT22;46834;51.100;6.886;2023-02-01T00:46:19;7.40;52.10
60965;DHT22;46834;51.100;6.886;2023-02-01T00:48:46;7.40;52.10
60965;DHT22;46834;51.100;6.886;2023-02-01T00:51:15;7.40;52.10
60965;DHT22;46834;51.100;6.886;2023-02-01T00:53:43;7.40;52.00
60965;DHT22;46834;51.100;6.886;2023-02-01T00:56:10;7.40;51.90
60965;DHT22;46834;51.100;6.886;2023-02-01T00:58:36;7.30;51.70
60965;DHT22;46834;51.100;6.886;2023-02-01T01:01:07;7.30;51.60
60965;DHT22;46834;51.100;6.886;2023-02-01T01:03:37;7.30;51.50
60965;DHT22;46834;51.100;6.886;2023-02-01T01:06:11;7.30;51.50
60965;DHT22;46834;51.100;6.886;2023-02-01T01:08:39;7.20;51.30
60965;DHT22;46834;51.100;6.886;2023-02-01T01:11:14;7.20;51.30
60965;DHT22;46834;51.100;6.886;2023-02-01T01:13:43;7.20;51.30
60965;DHT22;46834;51.100;6.886;2023-02-01T01:16:11;7.10;51.20
60965;DHT22;46834;51.100;6.886;2023-02-01T01:18:38;7.10;51.20
60965;DHT22;46834;51.100;6.886;2023-02-01T01:21:05;7.10;51.10
60965;DHT22;46834;51.100;6.886;2023-02-01T01:23:31;7.00;51.00
60965;DHT22;46834;51.100;6.886;2023-02-01T01:25:58;7.00;51.00
60965;DHT22;46834;51.100;6.886;2023-02-01T01:28:24;7.00;50.90
60965;DHT22;46834;51.100;6.886;2023-02-01T01:30:49;7.00;50.90
60965;DHT22;46834;51.100;6.886;2023-02-01T01:33:15;7.00;50.90
60965;DHT22;46834;51.100;6.886;2023-02-01T01:35:41;7.00;50.90
60965;DHT22;46834;51.100;6.886;2023-02-01T01:38:09;7.00;50.90
60965;DHT22;46834;51.100;6.886;2023-02-01T01:40:35;7.00;50.80
60965;DHT22;46834;51.100;6.886;2023-02-01T01:43:01;7.00;50.80
60965;DHT22;46834;51.100;6.886;2023-02-01T01:45:34;7.00;50.80
60965;DHT22;46834;51.100;6.886;2023-02-01T01:48:11;7.00;50.60
60965;DHT22;46834;51.100;6.886;2023-02-01T01:50:45;7.00;50.50
60965;DHT22;46834;51.100;6.886;2023-02-01T01:53:21;7.00;50.60
60965;DHT22;46834;51.100;6.886;2023-02-01T01:55:53;6.90;50.50
60965;DHT22;46834;51.100;6.886;2023-02-01T01:58:24;6.90;50.40
60965;DHT22;46834;51.100;6.886;2023-02-01T02:00:53;7.00;50.50
60965;DHT22;46834;51.100;6.886;2023-02-01T02:03:27;6.90;50.40
60965;DHT22;46834;51.100;6.886;2023-02-01T02:06:02;6.90;50.30
60965;DHT22;46834;51.100;6.886;2023-02-01T02:08:29;6.90;50.40
60965;DHT22;46834;51.100;6.886;2023-02-01T02:10:55;6.90;50.40
60965;DHT22;46834;51.100;6.886;2023-02-01T02:21:51;6.90;50.30
60965;DHT22;46834;51.100;6.886;2023-02-01T02:30:48;6.90;50.10
60965;DHT22;46834;51.100;6.886;2023-02-01T02:37:33;6.90;50.10
60965;DHT22;46834;51.100;6.886;2023-02-01T02:42:58;6.90;50.10
60965;DHT22;46834;51.100;6.886;2023-02-01T02:45:59;6.90;50.10
60965;DHT22;46834;51.100;6.886;2023-02-01T02:49:28;6.90;50.10
60965;DHT22;46834;51.100;6.886;2023-02-01T02:52:12;6.90;49.90
60965;DHT22;46834;51.100;6.886;2023-02-01T02:55:01;6.90;50.00
60965;DHT22;46834;51.100;6.886;2023-02-01T02:57:39;6.80;50.00
60965;DHT22;46834;51.100;6.886;2023-02-01T03:00:32;6.80;50.00
60965;DHT22;46834;51.100;6.886;2023-02-01T03:03:18;6.80;50.00
60965;DHT22;46834;51.100;6.886;2023-02-01T03:06:02;6.80;50.00
60965;DHT22;46834;51.100;6.886;2023-02-01T03:08:30;6.80;50.00
60965;DHT22;46834;51.100;6.886;2023-02-01T03:11:08;6.80;50.00
60965;DHT22;46834;51.100;6.886;2023-02-01T03:13:49;6.80;49.90
60965;DHT22;46834;51.100;6.886;2023-02-01T03:16:49;6.70;49.90
60965;DHT22;46834;51.100;6.886;2023-02-01T03:19:35;6.70;49.80
60965;DHT22;46834;51.100;6.886;2023-02-01T03:22:12;6.70;49.90
60965;DHT22;46834;51.100;6.886;2023-02-01T03:25:21;6.60;49.90
60965;DHT22;46834;51.100;6.886;2023-02-01T03:27:58;6.60;49.90
60965;DHT22;46834;51.100;6.886;2023-02-01T03:30:35;6.60;49.90
60965;DHT22;46834;51.100;6.886;2023-02-01T03:33:05;6.60;50.00
60965;DHT22;46834;51.100;6.886;2023-02-01T03:41:53;6.60;50.10
60965;DHT22;46834;51.100;6.886;2023-02-01T03:44:31;6.60;50.10
60965;DHT22;46834;51.100;6.886;2023-02-01T03:47:16;6.50;50.10
60965;DHT22;46834;51.100;6.886;2023-02-01T03:49:52;6.60;50.30
60965;DHT22;46834;51.100;6.886;2023-02-01T03:52:27;6.60;50.30
60965;DHT22;46834;51.100;6.886;2023-02-01T03:54:56;6.60;50.40
60965;DHT22;46834;51.100;6.886;2023-02-01T03:57:27;6.60;50.40
60965;DHT22;46834;51.100;6.886;2023-02-01T04:00:05;6.50;50.30
60965;DHT22;46834;51.100;6.886;2023-02-01T04:02:52;6.60;50.40
60965;DHT22;46834;51.100;6.886;2023-02-01T04:05:18;6.60;50.40
60965;DHT22;46834;51.100;6.886;2023-02-01T04:07:44;6.60;50.30
60965;DHT22;46834;51.100;6.886;2023-02-01T04:10:11;6.60;50.30
60965;DHT22;46834;51.100;6.886;2023-02-01T04:12:38;6.60;50.30
60965;DHT22;46834;51.100;6.886;2023-02-01T04:15:04;6.70;50.40
60965;DHT22;46834;51.100;6.886;2023-02-01T04:17:30;6.60;50.20
60965;DHT22;46834;51.100;6.886;2023-02-01T04:19:56;6.70;50.30
60965;DHT22;46834;51.100;6.886;2023-02-01T04:22:22;6.70;50.30
60965;DHT22;46834;51.100;6.886;2023-02-01T04:24:48;6.70;50.20
60965;DHT22;46834;51.100;6.886;2023-02-01T04:27:14;6.70;50.20
60965;DHT22;46834;51.100;6.886;2023-02-01T04:29:40;6.70;50.10
60965;DHT22;46834;51.100;6.886;2023-02-01T04:32:06;6.70;50.10
60965;DHT22;46834;51.100;6.886;2023-02-01T04:34:32;6.70;50.10
60965;DHT22;46834;51.100;6.886;2023-02-01T04:36:58;6.70;50.10
60965;DHT22;46834;51.100;6.886;2023-02-01T04:39:23;6.70;50.00
60965;DHT22;46834;51.100;6.886;2023-02-01T04:41:49;6.70;49.90
60965;DHT22;46834;51.100;6.886;2023-02-01T04:44:16;6.70;49.90
60965;DHT22;46834;51.100;6.886;2023-02-01T04:46:44;6.70;49.90
60965;DHT22;46834;51.100;6.886;2023-02-01T04:49:12;6.60;49.80
60965;DHT22;46834;51.100;6.886;2023-02-01T04:51:38;6.60;49.80
60965;DHT22;46834;51.100;6.886;2023-02-01T04:54:04;6.60;49.70
60965;DHT22;46834;51.100;6.886;2023-02-01T04:56:30;6.60;49.70
60965;DHT22;46834;51.100;6.886;2023-02-01T04:58:56;6.50;49.60
60965;DHT22;46834;51.100;6.886;2023-02-01T05:01:22;6.50;49.70
60965;DHT22;46834;51.100;6.886;2023-02-01T05:03:50;6.50;49.70
60965;DHT22;46834;51.100;6.886;2023-02-01T05:06:16;6.40;49.60
60965;DHT22;46834;51.100;6.886;2023-02-01T05:08:42;6.40;49.70
60965;DHT22;46834;51.100;6.886;2023-02-01T05:11:08;6.40;49.70
60965;DHT22;46834;51.100;6.886;2023-02-01T05:13:53;6.40;49.70
60965;DHT22;46834;51.100;6.886;2023-02-01T05:16:19;6.40;49.70
60965;DHT22;46834;51.100;6.886;2023-02-01T05:18:45;6.30;49.60
60965;DHT22;46834;51.100;6.886;2023-02-01T05:21:11;6.30;49.60
60965;DHT22;46834;51.100;6.886;2023-02-01T05:23:36;6.30;49.60
60965;DHT22;46834;51.100;6.886;2023-02-01T05:26:22;6.30;49.60
60965;DHT22;46834;51.100;6.886;2023-02-01T05:28:48;6.20;49.60
60965;DHT22;46834;51.100;6.886;2023-02-01T05:31:14;6.20;49.60
60965;DHT22;46834;51.100;6.886;2023-02-01T05:33:40;6.20;49.60
60965;DHT22;46834;51.100;6.886;2023-02-01T05:36:06;6.20;49.70
60965;DHT22;46834;51.100;6.886;2023-02-01T05:38:32;6.20;49.70
60965;DHT22;46834;51.100;6.886;2023-02-01T05:40:58;6.10;49.60
60965;DHT22;46834;51.100;6.886;2023-02-01T05:43:24;6.10;49.60
60965;DHT22;46834;51.100;6.886;2023-02-01T05:45:51;6.10;49.60
60965;DHT22;46834;51.100;6.886;2023-02-01T05:48:17;6.10;49.70
60965;DHT22;46834;51.100;6.886;2023-02-01T05:50:43;6.10;49.80
60965;DHT22;46834;51.100;6.886;2023-02-01T05:53:09;6.10;49.70
60965;DHT22;46834;51.100;6.886;2023-02-01T05:55:36;6.10;49.70
60965;DHT22;46834;51.100;6.886;2023-02-01T05:58:02;6.10;49.70
60965;DHT22;46834;51.100;6.886;2023-02-01T06:00:28;6.10;49.70
60965;DHT22;46834;51.100;6.886;2023-02-01T06:02:54;6.10;49.60
60965;DHT22;46834;51.100;6.886;2023-02-01T06:05:20;6.10;49.60
60965;DHT22;46834;51.100;6.886;2023-02-01T06:07:46;6.10;49.60
60965;DHT22;46834;51.100;6.886;2023-02-01T06:10:12;6.10;49.60
60965;DHT22;46834;51.100;6.886;2023-02-01T06:12:37;6.00;49.60
60965;DHT22;46834;51.100;6.886;2023-02-01T06:15:04;6.00;49.60
60965;DHT22;46834;51.100;6.886;2023-02-01T06:17:30;6.00;49.60
60965;DHT22;46834;51.100;6.886;2023-02-01T06:19:55;6.00;49.70
60965;DHT22;46834;51.100;6.886;2023-02-01T06:22:21;6.00;49.70
60965;DHT22;46834;51.100;6.886;2023-02-01T06:24:47;6.00;50.30
60965;DHT22;46834;51.100;6.886;2023-02-01T06:27:14;6.00;49.70
60965;DHT22;46834;51.100;6.886;2023-02-01T06:29:40;6.00;49.70
60965;DHT22;46834;51.100;6.886;2023-02-01T06:32:06;6.00;49.80
60965;DHT22;46834;51.100;6.886;2023-02-01T06:34:32;6.00;49.80
60965;DHT22;46834;51.100;6.886;2023-02-01T06:36:58;6.10;50.00
60965;DHT22;46834;51.100;6.886;2023-02-01T06:39:23;6.10;49.90
60965;DHT22;46834;51.100;6.886;2023-02-01T06:41:50;6.10;49.90
60965;DHT22;46834;51.100;6.886;2023-02-01T06:44:16;6.10;49.90
60965;DHT22;46834;51.100;6.886;2023-02-01T06:46:42;6.20;50.00
60965;DHT22;46834;51.100;6.886;2023-02-01T06:49:08;6.20;50.00
60965;DHT22;46834;51.100;6.886;2023-02-01T06:51:34;6.20;50.00
60965;DHT22;46834;51.100;6.886;2023-02-01T06:54:00;6.20;49.90
60965;DHT22;46834;51.100;6.886;2023-02-01T06:56:27;6.30;50.00
60965;DHT22;46834;51.100;6.886;2023-02-01T06:58:53;6.30;49.90
60965;DHT22;46834;51.100;6.886;2023-02-01T07:01:19;6.30;49.90
60965;DHT22;46834;51.100;6.886;2023-02-01T07:03:49;6.30;49.90
60965;DHT22;46834;51.100;6.886;2023-02-01T07:06:16;6.40;50.00
60965;DHT22;46834;51.100;6.886;2023-02-01T07:08:42;6.30;49.90
60965;DHT22;46834;51.100;6.886;2023-02-01T07:11:10;6.40;49.90
60965;DHT22;46834;51.100;6.886;2023-02-01T07:13:38;6.40;49.90
60965;DHT22;46834;51.100;6.886;2023-02-01T07:16:08;6.40;49.90
60965;DHT22;46834;51.100;6.886;2023-02-01T07:18:36;6.40;49.80
60965;DHT22;46834;51.100;6.886;2023-02-01T07:21:01;6.40;49.90
60965;DHT22;46834;51.100;6.886;2023-02-01T07:23:27;6.40;49.80
60965;DHT22;46834;51.100;6.886;2023-02-01T07:25:58;6.40;49.80
60965;DHT22;46834;51.100;6.886;2023-02-01T07:28:26;6.50;49.90
60965;DHT22;46834;51.100;6.886;2023-02-01T07:30:54;6.50;49.90
60965;DHT22;46834;51.100;6.886;2023-02-01T07:33:21;6.50;49.90
60965;DHT22;46834;51.100;6.886;2023-02-01T07:35:49;6.50;49.90
60965;DHT22;46834;51.100;6.886;2023-02-01T07:38:16;6.50;49.90
60965;DHT22;46834;51.100;6.886;2023-02-01T07:40:42;6.50;49.90
60965;DHT22;46834;51.100;6.886;2023-02-01T07:43:09;6.50;49.90
60965;DHT22;46834;51.100;6.886;2023-02-01T07:45:35;6.50;49.90
60965;DHT22;46834;51.100;6.886;2023-02-01T07:48:02;6.50;49.90
60965;DHT22;46834;51.100;6.886;2023-02-01T07:50:29;6.50;49.90
60965;DHT22;46834;51.100;6.886;2023-02-01T07:52:55;6.60;49.90
60965;DHT22;46834;51.100;6.886;2023-02-01T07:55:21;6.60;49.90
60965;DHT22;46834;51.100;6.886;2023-02-01T07:57:47;6.60;49.80
60965;DHT22;46834;51.100;6.886;2023-02-01T08:00:13;6.60;49.80
60965;DHT22;46834;51.100;6.886;2023-02-01T08:02:59;6.60;49.80
60965;DHT22;46834;51.100;6.886;2023-02-01T08:05:24;6.60;49.80
60965;DHT22;46834;51.100;6.886;2023-02-01T08:07:50;6.60;49.80
60965;DHT22;46834;51.100;6.886;2023-02-01T08:10:17;6.60;49.80
60965;DHT22;46834;51.100;6.886;2023-02-01T08:12:43;6.60;49.80
60965;DHT22;46834;51.100;6.886;2023-02-01T08:15:16;6.60;49.80
60965;DHT22;46834;51.100;6.886;2023-02-01T08:17:50;6.60;49.90
60965;DHT22;46834;51.100;6.886;2023-02-01T08:20:18;6.60;49.80
60965;DHT22;46834;51.100;6.886;2023-02-01T08:22:45;6.60;49.80
60965;DHT22;46834;51.100;6.886;2023-02-01T08:25:10;6.60;49.80
60965;DHT22;46834;51.100;6.886;2023-02-01T08:27:37;6.60;49.80
60965;DHT22;46834;51.100;6.886;2023-02-01T08:30:04;6.60;49.80
60965;DHT22;46834;51.100;6.886;2023-02-01T08:32:33;6.60;49.80
60965;DHT22;46834;51.100;6.886;2023-02-01T08:34:59;6.60;49.80
60965;DHT22;46834;51.100;6.886;2023-02-01T08:37:24;6.70;49.80
60965;DHT22;46834;51.100;6.886;2023-02-01T08:39:50;6.70;49.90
60965;DHT22;46834;51.100;6.886;2023-02-01T08:42:16;6.70;49.90
60965;DHT22;46834;51.100;6.886;2023-02-01T08:45:02;6.70;49.90
60965;DHT22;46834;51.100;6.886;2023-02-01T08:47:30;6.70;49.90
60965;DHT22;46834;51.100;6.886;2023-02-01T08:49:56;6.70;49.80
60965;DHT22;46834;51.100;6.886;2023-02-01T08:52:22;6.80;49.90
60965;DHT22;46834;51.100;6.886;2023-02-01T08:54:48;6.80;49.90
60965;DHT22;46834;51.100;6.886;2023-02-01T08:57:13;6.80;49.90
60965;DHT22;46834;51.100;6.886;2023-02-01T08:59:40;6.80;49.90
60965;DHT22;46834;51.100;6.886;2023-02-01T09:02:08;6.60;50.10
60965;DHT22;46834;51.100;6.886;2023-02-01T09:04:36;6.70;50.20
60965;DHT22;46834;51.100;6.886;2023-02-01T09:07:01;6.70;50.10
60965;DHT22;46834;51.100;6.886;2023-02-01T09:09:27;6.80;50.00
60965;DHT22;46834;51.100;6.886;2023-02-01T09:11:53;6.60;50.30
60965;DHT22;46834;51.100;6.886;2023-02-01T09:14:19;6.60;50.40
60965;DHT22;46834;51.100;6.886;2023-02-01T09:16:44;6.70;50.30
60965;DHT22;46834;51.100;6.886;2023-02-01T09:19:10;6.80;50.20
60965;DHT22;46834;51.100;6.886;2023-02-01T09:21:36;6.80;50.10
60965;DHT22;46834;51.100;6.886;2023-02-01T09:24:02;6.90;50.00
60965;DHT22;46834;51.100;6.886;2023-02-01T09:26:29;6.80;50.00
60965;DHT22;46834;51.100;6.886;2023-02-01T09:28:55;6.70;50.00
60965;DHT22;46834;51.100;6.886;2023-02-01T09:31:20;6.80;50.00
60965;DHT22;46834;51.100;6.886;2023-02-01T09:33:46;6.70;50.10
60965;DHT22;46834;51.100;6.886;2023-02-01T09:36:12;6.80;50.20
60965;DHT22;46834;51.100;6.886;2023-02-01T09:38:37;6.90;50.10
60965;DHT22;46834;51.100;6.886;2023-02-01T09:41:20;6.90;50.00
60965;DHT22;46834;51.100;6.886;2023-02-01T09:44:02;7.00;49.80
60965;DHT22;46834;51.100;6.886;2023-02-01T09:46:35;7.10;49.70
60965;DHT22;46834;51.100;6.886;2023-02-01T09:49:09;7.10;49.60
60965;DHT22;46834;51.100;6.886;2023-02-01T09:51:43;7.20;49.60
60965;DHT22;46834;51.100;6.886;2023-02-01T09:54:26;7.20;49.60
60965;DHT22;46834;51.100;6.886;2023-02-01T09:59:42;7.00;49.70
60965;DHT22;46834;51.100;6.886;2023-02-01T10:02:23;6.80;49.90
60965;DHT22;46834;51.100;6.886;2023-02-01T10:04:54;6.80;50.00
60965;DHT22;46834;51.100;6.886;2023-02-01T10:10:47;6.90;50.10
60965;DHT22;46834;51.100;6.886;2023-02-01T10:13:38;7.00;49.90
60965;DHT22;46834;51.100;6.886;2023-02-01T10:16:31;7.10;49.70
60965;DHT22;46834;51.100;6.886;2023-02-01T10:19:27;7.20;49.60
60965;DHT22;46834;51.100;6.886;2023-02-01T10:22:14;7.10;49.70
60965;DHT22;46834;51.100;6.886;2023-02-01T10:25:26;7.20;49.90
60965;DHT22;46834;51.100;6.886;2023-02-01T10:27:57;7.10;49.70
60965;DHT22;46834;51.100;6.886;2023-02-01T10:30:31;7.20;50.00
60965;DHT22;46834;51.100;6.886;2023-02-01T10:33:20;7.20;49.90
60965;DHT22;46834;51.100;6.886;2023-02-01T10:35:55;7.30;50.00
60965;DHT22;46834;51.100;6.886;2023-02-01T10:38:29;7.30;49.80
60965;DHT22;46834;51.100;6.886;2023-02-01T10:41:13;7.30;49.80
60965;DHT22;46834;51.100;6.886;2023-02-01T10:43:42;7.40;49.80
60965;DHT22;46834;51.100;6.886;2023-02-01T10:46:10;7.60;49.80
60965;DHT22;46834;51.100;6.886;2023-02-01T10:48:36;7.70;49.60
60965;DHT22;46834;51.100;6.886;2023-02-01T10:51:08;7.80;49.50
60965;DHT22;46834;51.100;6.886;2023-02-01T10:53:47;7.80;49.30
60965;DHT22;46834;51.100;6.886;2023-02-01T10:56:14;7.90;49.10
60965;DHT22;46834;51.100;6.886;2023-02-01T10:59:01;7.90;49.00
60965;DHT22;46834;51.100;6.886;2023-02-01T11:01:36;7.90;48.90
60965;DHT22;46834;51.100;6.886;2023-02-01T11:04:25;7.90;48.90
60965;DHT22;46834;51.100;6.886;2023-02-01T11:07:17;8.00;48.80
60965;DHT22;46834;51.100;6.886;2023-02-01T11:09:51;8.00;48.90
60965;DHT22;46834;51.100;6.886;2023-02-01T11:12:24;8.00;48.90
60965;DHT22;46834;51.100;6.886;2023-02-01T11:15:15;8.00;48.80
60965;DHT22;46834;51.100;6.886;2023-02-01T11:17:49;7.90;48.60
60965;DHT22;46834;51.100;6.886;2023-02-01T11:20:19;7.90;48.80
60965;DHT22;46834;51.100;6.886;2023-02-01T11:23:29;7.90;48.90
60965;DHT22;46834;51.100;6.886;2023-02-01T11:26:28;7.90;48.90
60965;DHT22;46834;51.100;6.886;2023-02-01T11:29:01;7.90;48.80
60965;DHT22;46834;51.100;6.886;2023-02-01T11:31:30;8.00;48.90
60965;DHT22;46834;51.100;6.886;2023-02-01T11:34:04;8.00;49.00
60965;DHT22;46834;51.100;6.886;2023-02-01T11:36:36;8.00;49.10
60965;DHT22;46834;51.100;6.886;2023-02-01T11:39:17;8.00;49.10
60965;DHT22;46834;51.100;6.886;2023-02-01T11:41:57;8.00;49.00
60965;DHT22;46834;51.100;6.886;2023-02-01T11:49:52;8.10;48.70
60965;DHT22;46834;51.100;6.886;2023-02-01T11:55:15;8.10;48.80
60965;DHT22;46834;51.100;6.886;2023-02-01T12:00:48;8.10;48.90
60965;DHT22;46834;51.100;6.886;2023-02-01T12:04:01;8.00;48.80
60965;DHT22;46834;51.100;6.886;2023-02-01T12:09:26;8.10;48.80
60965;DHT22;46834;51.100;6.886;2023-02-01T12:12:31;8.10;48.90
60965;DHT22;46834;51.100;6.886;2023-02-01T12:15:08;8.10;48.90
60965;DHT22;46834;51.100;6.886;2023-02-01T12:18:14;8.10;48.90
60965;DHT22;46834;51.100;6.886;2023-02-01T12:21:09;8.10;48.80
60965;DHT22;46834;51.100;6.886;2023-02-01T12:41:19;8.20;48.70
60965;DHT22;46834;51.100;6.886;2023-02-01T12:44:06;8.20;48.80
60965;DHT22;46834;51.100;6.886;2023-02-01T12:46:50;8.20;48.60
60965;DHT22;46834;51.100;6.886;2023-02-01T12:49:27;8.20;48.60
60965;DHT22;46834;51.100;6.886;2023-02-01T12:52:05;8.20;48.60
60965;DHT22;46834;51.100;6.886;2023-02-01T12:57:42;8.20;49.10
60965;DHT22;46834;51.100;6.886;2023-02-01T13:02:54;8.20;48.50
60965;DHT22;46834;51.100;6.886;2023-02-01T13:05:37;8.20;48.60
60965;DHT22;46834;51.100;6.886;2023-02-01T13:08:43;8.20;48.40
60965;DHT22;46834;51.100;6.886;2023-02-01T13:11:28;8.20;48.40
60965;DHT22;46834;51.100;6.886;2023-02-01T13:16:53;8.20;48.40
60965;DHT22;46834;51.100;6.886;2023-02-01T13:22:28;8.20;48.40
60965;DHT22;46834;51.100;6.886;2023-02-01T13:25:12;8.20;48.40
60965;DHT22;46834;51.100;6.886;2023-02-01T13:27:40;8.20;48.30
60965;DHT22;46834;51.100;6.886;2023-02-01T13:32:45;8.20;48.50
60965;DHT22;46834;51.100;6.886;2023-02-01T13:35:23;8.20;48.50
60965;DHT22;46834;51.100;6.886;2023-02-01T13:38:43;8.20;48.50
60965;DHT22;46834;51.100;6.886;2023-02-01T13:41:51;8.20;48.40
60965;DHT22;46834;51.100;6.886;2023-02-01T13:44:40;8.20;48.50
60965;DHT22;46834;51.100;6.886;2023-02-01T13:47:33;8.30;48.40
60965;DHT22;46834;51.100;6.886;2023-02-01T13:55:43;8.30;48.50
60965;DHT22;46834;51.100;6.886;2023-02-01T13:58:18;8.20;48.50
60965;DHT22;46834;51.100;6.886;2023-02-01T14:00:48;8.20;48.50
60965;DHT22;46834;51.100;6.886;2023-02-01T14:03:21;8.20;48.50
60965;DHT22;46834;51.100;6.886;2023-02-01T14:06:38;8.20;48.50
60965;DHT22;46834;51.100;6.886;2023-02-01T14:19:24;8.30;48.50
60965;DHT22;46834;51.100;6.886;2023-02-01T14:21:54;8.30;48.40
60965;DHT22;46834;51.100;6.886;2023-02-01T14:24:54;8.20;48.40
60965;DHT22;46834;51.100;6.886;2023-02-01T14:27:25;8.30;48.30
60965;DHT22;46834;51.100;6.886;2023-02-01T14:29:57;8.30;48.40
60965;DHT22;46834;51.100;6.886;2023-02-01T14:32:31;8.30;48.30
60965;DHT22;46834;51.100;6.886;2023-02-01T14:35:01;8.30;48.20
60965;DHT22;46834;51.100;6.886;2023-02-01T14:37:34;8.30;48.30
60965;DHT22;46834;51.100;6.886;2023-02-01T14:40:19;8.30;48.30
60965;DHT22;46834;51.100;6.886;2023-02-01T14:42:50;8.30;48.10
60965;DHT22;46834;51.100;6.886;2023-02-01T14:56:05;8.30;48.10
60965;DHT22;46834;51.100;6.886;2023-02-01T15:01:34;8.30;48.10
60965;DHT22;46834;51.100;6.886;2023-02-01T15:04:12;8.30;48.20
60965;DHT22;46834;51.100;6.886;2023-02-01T15:07:04;8.30;48.10
60965;DHT22;46834;51.100;6.886;2023-02-01T15:09:38;8.30;48.20
60965;DHT22;46834;51.100;6.886;2023-02-01T15:14:42;8.30;48.20
60965;DHT22;46834;51.100;6.886;2023-02-01T15:20:26;8.30;48.10
60965;DHT22;46834;51.100;6.886;2023-02-01T15:22:58;8.30;48.10
60965;DHT22;46834;51.100;6.886;2023-02-01T15:25:36;8.30;48.80
60965;DHT22;46834;51.100;6.886;2023-02-01T15:28:04;8.40;48.30
60965;DHT22;46834;51.100;6.886;2023-02-01T15:30:34;8.30;48.30
60965;DHT22;46834;51.100;6.886;2023-02-01T15:33:27;8.30;48.20
60965;DHT22;46834;51.100;6.886;2023-02-01T15:36:08;8.30;48.00
60965;DHT22;46834;51.100;6.886;2023-02-01T15:38:40;8.40;48.10
60965;DHT22;46834;51.100;6.886;2023-02-01T15:41:19;8.40;48.20
60965;DHT22;46834;51.100;6.886;2023-02-01T15:44:04;8.40;48.10
60965;DHT22;46834;51.100;6.886;2023-02-01T15:46:42;8.40;48.00
60965;DHT22;46834;51.100;6.886;2023-02-01T15:49:25;8.40;48.20
60965;DHT22;46834;51.100;6.886;2023-02-01T15:51:58;8.40;48.00
60965;DHT22;46834;51.100;6.886;2023-02-01T15:54:43;8.40;48.20
60965;DHT22;46834;51.100;6.886;2023-02-01T15:57:23;8.40;48.00
60965;DHT22;46834;51.100;6.886;2023-02-01T16:00:04;8.40;48.00
60965;DHT22;46834;51.100;6.886;2023-02-01T16:02:43;8.40;48.00
60965;DHT22;46834;51.100;6.886;2023-02-01T16:05:38;8.40;48.00
60965;DHT22;46834;51.100;6.886;2023-02-01T16:08:16;8.40;48.00
60965;DHT22;46834;51.100;6.886;2023-02-01T16:10:49;8.40;48.00
60965;DHT22;46834;51.100;6.886;2023-02-01T16:13:18;8.40;48.10
60965;DHT22;46834;51.100;6.886;2023-02-01T16:15:46;8.40;48.10
60965;DHT22;46834;51.100;6.886;2023-02-01T16:18:13;8.30;48.00
60965;DHT22;46834;51.100;6.886;2023-02-01T16:20:40;8.30;48.00
60965;DHT22;46834;51.100;6.886;2023-02-01T16:23:08;8.30;48.00
60965;DHT22;46834;51.100;6.886;2023-02-01T16:25:35;8.30;48.10
60965;DHT22;46834;51.100;6.886;2023-02-01T16:28:02;8.40;48.70
60965;DHT22;46834;51.100;6.886;2023-02-01T16:30:28;8.30;48.00
60965;DHT22;46834;51.100;6.886;2023-02-01T16:32:55;8.30;48.10
60965;DHT22;46834;51.100;6.886;2023-02-01T16:37:49;8.30;48.10
60965;DHT22;46834;51.100;6.886;2023-02-01T16:40:17;8.30;48.10
60965;DHT22;46834;51.100;6.886;2023-02-01T16:42:49;8.30;48.10
60965;DHT22;46834;51.100;6.886;2023-02-01T16:45:16;8.30;48.10
60965;DHT22;46834;51.100;6.886;2023-02-01T16:47:49;8.30;48.10
60965;DHT22;46834;51.100;6.886;2023-02-01T16:50:22;8.40;48.10
60965;DHT22;46834;51.100;6.886;2023-02-01T16:52:50;8.30;48.10
60965;DHT22;46834;51.100;6.886;2023-02-01T16:55:18;8.30;48.20
60965;DHT22;46834;51.100;6.886;2023-02-01T16:57:46;8.30;48.10
60965;DHT22;46834;51.100;6.886;2023-02-01T17:00:13;8.30;48.10
60965;DHT22;46834;51.100;6.886;2023-02-01T17:02:41;8.30;48.10
60965;DHT22;46834;51.100;6.886;2023-02-01T17:05:08;8.30;48.20
60965;DHT22;46834;51.100;6.886;2023-02-01T17:07:35;8.30;48.10
60965;DHT22;46834;51.100;6.886;2023-02-01T17:10:04;8.30;48.20
60965;DHT22;46834;51.100;6.886;2023-02-01T17:12:32;8.30;48.20
60965;DHT22;46834;51.100;6.886;2023-02-01T17:14:59;8.30;48.30
60965;DHT22;46834;51.100;6.886;2023-02-01T17:17:51;8.30;48.30
60965;DHT22;46834;51.100;6.886;2023-02-01T17:20:23;8.30;48.20
60965;DHT22;46834;51.100;6.886;2023-02-01T17:22:50;8.30;48.20
60965;DHT22;46834;51.100;6.886;2023-02-01T17:25:18;8.30;48.20
60965;DHT22;46834;51.100;6.886;2023-02-01T17:27:46;8.30;48.30
60965;DHT22;46834;51.100;6.886;2023-02-01T17:30:13;8.30;48.30
60965;DHT22;46834;51.100;6.886;2023-02-01T17:32:40;8.30;48.30
60965;DHT22;46834;51.100;6.886;2023-02-01T17:35:18;8.30;48.30
60965;DHT22;46834;51.100;6.886;2023-02-01T17:37:47;8.30;48.30
60965;DHT22;46834;51.100;6.886;2023-02-01T17:40:14;8.30;48.30
60965;DHT22;46834;51.100;6.886;2023-02-01T17:42:40;8.30;48.40
60965;DHT22;46834;51.100;6.886;2023-02-01T17:48:02;8.30;48.30
60965;DHT22;46834;51.100;6.886;2023-02-01T17:50:30;8.30;48.40
60965;DHT22;46834;51.100;6.886;2023-02-01T17:52:58;8.30;48.30
60965;DHT22;46834;51.100;6.886;2023-02-01T17:55:25;8.30;48.40
60965;DHT22;46834;51.100;6.886;2023-02-01T17:57:51;8.30;48.30
60965;DHT22;46834;51.100;6.886;2023-02-01T18:00:17;8.30;48.40
60965;DHT22;46834;51.100;6.886;2023-02-01T18:02:44;8.30;48.40
60965;DHT22;46834;51.100;6.886;2023-02-01T18:05:39;8.30;48.40
60965;DHT22;46834;51.100;6.886;2023-02-01T18:08:08;8.30;48.30
60965;DHT22;46834;51.100;6.886;2023-02-01T18:10:34;8.30;48.50
60965;DHT22;46834;51.100;6.886;2023-02-01T18:13:01;8.30;48.40
60965;DHT22;46834;51.100;6.886;2023-02-01T18:15:29;8.30;48.40
60965;DHT22;46834;51.100;6.886;2023-02-01T18:17:56;8.30;48.40
60965;DHT22;46834;51.100;6.886;2023-02-01T18:20:24;8.30;48.40